Current Weather Conditions: station 46145

sailwx.info

Wind from 120 at 38 knots gusting 48

Wave height 4.6 meters (15 feet), 8 second period

Air temperature 7.0° C
Water temperature 8.7° C

Last reported at 2014-Dec-18 18:00 UTC.
Time now 2014-Dec-18 20:17 UTC

Location: N 54°24' W 132°24'.
View on Google Maps.

See reports from other nearby stations

  
Tides and Currents Weather Stations Pressure Air Temp Water Temp Dewpoint Dewpoint Depression Visibility Wind Speed Wind Dir Waves Ship Positions
date/time (UTC)wind fromknots sea level pressurealtimeterstation pressurevisibilityair tempwater tempwave heightnotes
2014-Dec-18 18:00 120 38 gusting 48 7.0 8.7 4.6
2014-Dec-18 17:00 110 36 gusting 44 7.1 8.7 4.5
2014-Dec-18 16:00 120 38 gusting 48 7.2 8.8 4.3
2014-Dec-18 15:00 120 36 gusting 46 7.1 8.7 3.7
2014-Dec-18 14:00 110 34 gusting 44 7.1 8.7 3.3
2014-Dec-18 13:00 110 31 gusting 40 7.1 8.7 3.1
2014-Dec-18 12:00 110 29 gusting 36 7.7 8.7 3.0
2014-Dec-18 11:00 120 31 gusting 38 7.4 8.7 2.9
2014-Dec-18 10:00 120 29 gusting 34 7.7 8.8 2.7
2014-Dec-18 09:00 120 29 gusting 34 7.6 8.7 2.9
2014-Dec-18 08:00 120 25 gusting 31 7.6 8.8 2.5
2014-Dec-18 07:00 120 23 gusting 27 7.5 8.8 2.8
2014-Dec-18 06:00 130 27 gusting 34 7.6 8.8 2.6
2014-Dec-18 05:00 120 27 gusting 34 7.7 8.7 2.5
2014-Dec-18 04:00 120 25 gusting 33 7.6 8.7 2.3
2014-Dec-18 03:00 120 23 gusting 31 7.5 8.7 2.3
2014-Dec-18 02:00 120 23 gusting 29 7.6 8.7 2.3
2014-Dec-18 01:00 110 23 gusting 29 7.4 8.7 2.4
2014-Dec-18 00:00 110 25 gusting 31 7.3 8.7 2.4
2014-Dec-17 23:00 110 23 gusting 31 7.4 8.7 2.2
2014-Dec-17 22:00 110 23 gusting 27 7.6 8.7 2.2
2014-Dec-17 21:00 110 21 gusting 27 7.6 8.7 2.1
2014-Dec-17 20:00 120 19 gusting 23 7.6 8.7 2.1
2014-Dec-17 19:00 120 19 gusting 23 7.5 8.7 2.1
2014-Dec-17 18:00 120 19 gusting 23 7.6 8.7 2.0
2014-Dec-17 17:00 130 17 gusting 21 7.8 8.7 2.3
2014-Dec-17 16:00 120 17 gusting 23 7.6 8.7 2.3
2014-Dec-17 15:00 120 15 gusting 21 7.7 8.7 2.2
2014-Dec-17 14:00 130 15 gusting 17 7.6 8.7 2.6
2014-Dec-17 13:00 140 13 gusting 17 7.5 8.7 2.9
2014-Dec-17 12:00 140 11 gusting 15 7.2 8.6 2.8
2014-Dec-17 11:00 140 9 gusting 15 7.1 8.6 2.6
2014-Dec-17 10:00 140 9 gusting 13 6.9 8.6 3.0
2014-Dec-17 09:00 170 9 gusting 11 6.6 8.6 2.8
2014-Dec-17 08:00 160 11 gusting 13 6.7 8.7 2.9
2014-Dec-17 07:00 140 7 gusting 11 7.1 8.7 2.8
2014-Dec-17 06:00 170 11 gusting 11 7.0 8.7 3.3
2014-Dec-17 05:00 180 9 gusting 11 6.9 8.7 3.3
2014-Dec-17 04:00 180 11 gusting 13 7.0 8.7 3.3
2014-Dec-17 03:00 170 9 gusting 11 7.0 8.7 2.7
2014-Dec-17 02:00 160 11 gusting 13 6.9 8.7 2.8
2014-Dec-17 01:00 180 11 gusting 11 7.1 8.7 2.7
2014-Dec-17 00:00 180 11 gusting 13 7.1 8.7 2.2
2014-Dec-16 23:00 180 11 gusting 13 7.1 8.8 2.3
2014-Dec-16 22:00 170 11 gusting 15 6.7 8.7 2.1
2014-Dec-16 21:00 170 13 gusting 15 6.5 8.7 2.1
2014-Dec-16 20:00 180 15 gusting 17 6.6 8.7 1.8